sensor_id;sensor_type;location;lat;lon;timestamp;P1;durP1;ratioP1;P2;durP2;ratioP2
66163;SDS011;52962;51.088;3.096;2023-05-10T00:01:51;14.48;;;8.95;;
66163;SDS011;52962;51.088;3.096;2023-05-10T00:04:19;10.35;;;7.45;;
66163;SDS011;52962;51.088;3.096;2023-05-10T00:14:11;8.13;;;7.13;;
66163;SDS011;52962;51.088;3.096;2023-05-10T00:16:40;9.98;;;8.35;;
66163;SDS011;52962;51.088;3.096;2023-05-10T00:19:08;14.10;;;9.05;;
66163;SDS011;52962;51.088;3.096;2023-05-10T00:21:36;13.45;;;9.70;;
66163;SDS011;52962;51.088;3.096;2023-05-10T00:24:04;11.88;;;8.80;;
66163;SDS011;52962;51.088;3.096;2023-05-10T00:26:32;13.05;;;9.25;;
66163;SDS011;52962;51.088;3.096;2023-05-10T00:29:00;12.13;;;9.13;;
66163;SDS011;52962;51.088;3.096;2023-05-10T00:31:28;9.30;;;7.57;;
66163;SDS011;52962;51.088;3.096;2023-05-10T00:33:57;12.25;;;10.50;;
66163;SDS011;52962;51.088;3.096;2023-05-10T00:36:25;10.68;;;7.30;;
66163;SDS011;52962;51.088;3.096;2023-05-10T00:38:54;14.95;;;10.23;;
66163;SDS011;52962;51.088;3.096;2023-05-10T00:41:22;10.73;;;7.88;;
66163;SDS011;52962;51.088;3.096;2023-05-10T00:43:50;11.20;;;8.82;;
66163;SDS011;52962;51.088;3.096;2023-05-10T00:46:18;10.57;;;8.48;;
66163;SDS011;52962;51.088;3.096;2023-05-10T00:48:46;10.88;;;8.70;;
66163;SDS011;52962;51.088;3.096;2023-05-10T00:51:15;11.85;;;9.13;;
66163;SDS011;52962;51.088;3.096;2023-05-10T00:53:43;14.40;;;10.35;;
66163;SDS011;52962;51.088;3.096;2023-05-10T00:56:12;10.32;;;8.35;;
66163;SDS011;52962;51.088;3.096;2023-05-10T00:58:40;12.98;;;10.85;;
66163;SDS011;52962;51.088;3.096;2023-05-10T01:01:08;13.25;;;10.27;;
66163;SDS011;52962;51.088;3.096;2023-05-10T01:03:36;12.55;;;8.10;;
66163;SDS011;52962;51.088;3.096;2023-05-10T01:06:05;12.65;;;8.50;;
66163;SDS011;52962;51.088;3.096;2023-05-10T01:08:34;13.40;;;8.50;;
66163;SDS011;52962;51.088;3.096;2023-05-10T01:11:02;12.52;;;9.18;;
66163;SDS011;52962;51.088;3.096;2023-05-10T01:13:30;9.07;;;7.95;;
66163;SDS011;52962;51.088;3.096;2023-05-10T01:15:59;13.75;;;8.10;;
66163;SDS011;52962;51.088;3.096;2023-05-10T01:18:29;8.73;;;7.35;;
66163;SDS011;52962;51.088;3.096;2023-05-10T01:20:59;9.07;;;7.63;;
66163;SDS011;52962;51.088;3.096;2023-05-10T01:23:31;12.57;;;8.20;;
66163;SDS011;52962;51.088;3.096;2023-05-10T01:26:16;8.88;;;7.10;;
66163;SDS011;52962;51.088;3.096;2023-05-10T01:28:58;7.72;;;6.93;;
66163;SDS011;52962;51.088;3.096;2023-05-10T01:31:35;11.35;;;8.50;;
66163;SDS011;52962;51.088;3.096;2023-05-10T01:34:11;7.68;;;6.22;;
66163;SDS011;52962;51.088;3.096;2023-05-10T01:36:42;7.35;;;6.25;;
66163;SDS011;52962;51.088;3.096;2023-05-10T01:39:11;7.88;;;6.55;;
66163;SDS011;52962;51.088;3.096;2023-05-10T01:41:42;9.05;;;6.10;;
66163;SDS011;52962;51.088;3.096;2023-05-10T01:44:16;12.75;;;7.38;;
66163;SDS011;52962;51.088;3.096;2023-05-10T01:46:45;7.63;;;5.93;;
66163;SDS011;52962;51.088;3.096;2023-05-10T01:49:17;9.25;;;5.97;;
66163;SDS011;52962;51.088;3.096;2023-05-10T01:51:49;6.70;;;5.65;;
66163;SDS011;52962;51.088;3.096;2023-05-10T01:54:19;7.45;;;5.88;;
66163;SDS011;52962;51.088;3.096;2023-05-10T01:56:47;7.70;;;6.38;;
66163;SDS011;52962;51.088;3.096;2023-05-10T01:59:18;12.35;;;5.93;;
66163;SDS011;52962;51.088;3.096;2023-05-10T02:01:46;7.38;;;5.97;;
66163;SDS011;52962;51.088;3.096;2023-05-10T02:04:17;8.35;;;6.40;;
66163;SDS011;52962;51.088;3.096;2023-05-10T02:06:46;7.28;;;5.97;;
66163;SDS011;52962;51.088;3.096;2023-05-10T02:09:15;8.35;;;5.50;;
66163;SDS011;52962;51.088;3.096;2023-05-10T02:11:43;8.82;;;5.90;;
66163;SDS011;52962;51.088;3.096;2023-05-10T02:14:11;7.82;;;5.80;;
66163;SDS011;52962;51.088;3.096;2023-05-10T02:19:07;9.82;;;5.47;;
66163;SDS011;52962;51.088;3.096;2023-05-10T02:21:38;8.23;;;5.88;;
66163;SDS011;52962;51.088;3.096;2023-05-10T02:24:06;7.05;;;6.03;;
66163;SDS011;52962;51.088;3.096;2023-05-10T02:26:35;10.48;;;7.93;;
66163;SDS011;52962;51.088;3.096;2023-05-10T02:29:04;7.82;;;5.68;;
66163;SDS011;52962;51.088;3.096;2023-05-10T02:31:33;10.70;;;7.45;;
66163;SDS011;52962;51.088;3.096;2023-05-10T02:34:03;9.30;;;7.53;;
66163;SDS011;52962;51.088;3.096;2023-05-10T02:36:31;8.45;;;7.13;;
66163;SDS011;52962;51.088;3.096;2023-05-10T02:39:01;9.15;;;6.85;;
66163;SDS011;52962;51.088;3.096;2023-05-10T02:41:30;11.93;;;8.27;;
66163;SDS011;52962;51.088;3.096;2023-05-10T02:43:59;12.63;;;8.35;;
66163;SDS011;52962;51.088;3.096;2023-05-10T02:46:29;11.50;;;8.05;;
66163;SDS011;52962;51.088;3.096;2023-05-10T02:48:57;7.35;;;6.35;;
66163;SDS011;52962;51.088;3.096;2023-05-10T02:51:25;8.88;;;8.02;;
66163;SDS011;52962;51.088;3.096;2023-05-10T02:53:54;11.50;;;8.32;;
66163;SDS011;52962;51.088;3.096;2023-05-10T02:56:24;11.80;;;9.57;;
66163;SDS011;52962;51.088;3.096;2023-05-10T02:58:53;10.85;;;9.15;;
66163;SDS011;52962;51.088;3.096;2023-05-10T03:01:21;13.25;;;9.57;;
66163;SDS011;52962;51.088;3.096;2023-05-10T03:03:48;10.00;;;8.52;;
66163;SDS011;52962;51.088;3.096;2023-05-10T03:06:16;12.45;;;9.38;;
66163;SDS011;52962;51.088;3.096;2023-05-10T03:08:44;10.68;;;9.52;;
66163;SDS011;52962;51.088;3.096;2023-05-10T03:11:16;13.95;;;10.00;;
66163;SDS011;52962;51.088;3.096;2023-05-10T03:13:54;13.15;;;10.00;;
66163;SDS011;52962;51.088;3.096;2023-05-10T03:16:25;21.42;;;12.25;;
66163;SDS011;52962;51.088;3.096;2023-05-10T03:18:54;14.02;;;11.77;;
66163;SDS011;52962;51.088;3.096;2023-05-10T03:21:25;15.93;;;12.80;;
66163;SDS011;52962;51.088;3.096;2023-05-10T03:23:58;16.38;;;12.68;;
66163;SDS011;52962;51.088;3.096;2023-05-10T03:26:27;16.45;;;11.43;;
66163;SDS011;52962;51.088;3.096;2023-05-10T03:29:05;16.42;;;11.57;;
66163;SDS011;52962;51.088;3.096;2023-05-10T03:31:34;14.60;;;11.60;;
66163;SDS011;52962;51.088;3.096;2023-05-10T03:34:02;18.25;;;12.27;;
66163;SDS011;52962;51.088;3.096;2023-05-10T03:36:30;16.73;;;12.80;;
66163;SDS011;52962;51.088;3.096;2023-05-10T03:41:26;14.95;;;9.68;;
66163;SDS011;52962;51.088;3.096;2023-05-10T03:43:54;14.07;;;10.23;;
66163;SDS011;52962;51.088;3.096;2023-05-10T03:46:23;15.27;;;10.90;;
66163;SDS011;52962;51.088;3.096;2023-05-10T03:48:51;11.48;;;9.45;;
66163;SDS011;52962;51.088;3.096;2023-05-10T03:51:19;12.07;;;8.93;;
66163;SDS011;52962;51.088;3.096;2023-05-10T03:53:48;11.68;;;9.55;;
66163;SDS011;52962;51.088;3.096;2023-05-10T03:56:16;12.27;;;9.35;;
66163;SDS011;52962;51.088;3.096;2023-05-10T03:58:44;15.75;;;9.73;;
66163;SDS011;52962;51.088;3.096;2023-05-10T04:01:12;10.70;;;9.02;;
66163;SDS011;52962;51.088;3.096;2023-05-10T04:03:41;11.05;;;8.65;;
66163;SDS011;52962;51.088;3.096;2023-05-10T04:06:11;15.27;;;9.65;;
66163;SDS011;52962;51.088;3.096;2023-05-10T04:08:38;13.45;;;9.02;;
66163;SDS011;52962;51.088;3.096;2023-05-10T04:11:06;14.75;;;9.70;;
66163;SDS011;52962;51.088;3.096;2023-05-10T04:13:35;10.95;;;8.20;;
66163;SDS011;52962;51.088;3.096;2023-05-10T04:16:03;10.68;;;9.63;;
66163;SDS011;52962;51.088;3.096;2023-05-10T04:18:31;9.35;;;7.53;;
66163;SDS011;52962;51.088;3.096;2023-05-10T04:21:00;9.50;;;8.45;;
66163;SDS011;52962;51.088;3.096;2023-05-10T04:23:28;10.50;;;8.07;;
66163;SDS011;52962;51.088;3.096;2023-05-10T04:25:59;9.93;;;7.88;;
66163;SDS011;52962;51.088;3.096;2023-05-10T04:28:26;7.93;;;7.22;;
66163;SDS011;52962;51.088;3.096;2023-05-10T04:31:00;8.63;;;7.15;;
66163;SDS011;52962;51.088;3.096;2023-05-10T04:33:28;8.63;;;6.95;;
66163;SDS011;52962;51.088;3.096;2023-05-10T04:35:56;8.60;;;6.60;;
66163;SDS011;52962;51.088;3.096;2023-05-10T04:38:25;10.68;;;7.22;;
66163;SDS011;52962;51.088;3.096;2023-05-10T04:40:53;7.32;;;6.53;;
66163;SDS011;52962;51.088;3.096;2023-05-10T04:43:21;9.32;;;6.72;;
66163;SDS011;52962;51.088;3.096;2023-05-10T04:45:49;7.57;;;6.85;;
66163;SDS011;52962;51.088;3.096;2023-05-10T04:48:16;8.32;;;6.95;;
66163;SDS011;52962;51.088;3.096;2023-05-10T04:50:44;8.02;;;7.07;;
66163;SDS011;52962;51.088;3.096;2023-05-10T04:53:12;9.38;;;7.15;;
66163;SDS011;52962;51.088;3.096;2023-05-10T04:55:42;9.63;;;6.75;;
66163;SDS011;52962;51.088;3.096;2023-05-10T04:58:10;8.88;;;7.80;;
66163;SDS011;52962;51.088;3.096;2023-05-10T05:00:38;8.23;;;7.40;;
66163;SDS011;52962;51.088;3.096;2023-05-10T05:03:06;9.90;;;8.90;;
66163;SDS011;52962;51.088;3.096;2023-05-10T05:05:34;9.75;;;8.10;;
66163;SDS011;52962;51.088;3.096;2023-05-10T05:08:02;11.60;;;7.75;;
66163;SDS011;52962;51.088;3.096;2023-05-10T05:10:29;9.23;;;7.80;;
66163;SDS011;52962;51.088;3.096;2023-05-10T05:12:59;11.32;;;8.27;;
66163;SDS011;52962;51.088;3.096;2023-05-10T05:15:26;8.45;;;7.65;;
66163;SDS011;52962;51.088;3.096;2023-05-10T05:17:54;11.65;;;8.68;;
66163;SDS011;52962;51.088;3.096;2023-05-10T05:20:22;10.40;;;7.63;;
66163;SDS011;52962;51.088;3.096;2023-05-10T05:22:50;11.82;;;8.00;;
66163;SDS011;52962;51.088;3.096;2023-05-10T05:25:18;8.55;;;6.90;;
66163;SDS011;52962;51.088;3.096;2023-05-10T05:27:45;9.30;;;7.43;;
66163;SDS011;52962;51.088;3.096;2023-05-10T05:30:15;9.30;;;7.75;;
66163;SDS011;52962;51.088;3.096;2023-05-10T05:32:43;11.32;;;8.50;;
66163;SDS011;52962;51.088;3.096;2023-05-10T05:35:13;13.38;;;9.60;;
66163;SDS011;52962;51.088;3.096;2023-05-10T05:42:37;18.27;;;8.60;;
66163;SDS011;52962;51.088;3.096;2023-05-10T05:45:05;13.68;;;10.15;;
66163;SDS011;52962;51.088;3.096;2023-05-10T05:47:36;11.68;;;9.77;;
66163;SDS011;52962;51.088;3.096;2023-05-10T05:50:04;16.73;;;12.27;;
66163;SDS011;52962;51.088;3.096;2023-05-10T05:52:32;14.55;;;10.68;;
66163;SDS011;52962;51.088;3.096;2023-05-10T05:55:00;13.60;;;11.10;;
66163;SDS011;52962;51.088;3.096;2023-05-10T05:57:29;17.85;;;13.07;;
66163;SDS011;52962;51.088;3.096;2023-05-10T05:59:57;15.85;;;11.20;;
66163;SDS011;52962;51.088;3.096;2023-05-10T06:02:24;17.17;;;12.30;;
66163;SDS011;52962;51.088;3.096;2023-05-10T06:04:54;13.50;;;11.20;;
66163;SDS011;52962;51.088;3.096;2023-05-10T06:07:22;20.33;;;12.10;;
66163;SDS011;52962;51.088;3.096;2023-05-10T06:09:50;17.60;;;11.98;;
66163;SDS011;52962;51.088;3.096;2023-05-10T06:12:17;14.13;;;10.90;;
66163;SDS011;52962;51.088;3.096;2023-05-10T06:14:45;14.57;;;12.05;;
66163;SDS011;52962;51.088;3.096;2023-05-10T06:17:13;16.42;;;11.25;;
66163;SDS011;52962;51.088;3.096;2023-05-10T06:19:41;13.73;;;9.93;;
66163;SDS011;52962;51.088;3.096;2023-05-10T06:22:10;12.13;;;10.75;;
66163;SDS011;52962;51.088;3.096;2023-05-10T06:24:38;12.07;;;10.80;;
66163;SDS011;52962;51.088;3.096;2023-05-10T06:27:06;11.93;;;9.82;;
66163;SDS011;52962;51.088;3.096;2023-05-10T06:29:33;10.23;;;8.98;;
66163;SDS011;52962;51.088;3.096;2023-05-10T06:32:01;11.30;;;9.90;;
66163;SDS011;52962;51.088;3.096;2023-05-10T06:34:29;11.68;;;8.98;;
66163;SDS011;52962;51.088;3.096;2023-05-10T06:36:57;10.30;;;9.20;;
66163;SDS011;52962;51.088;3.096;2023-05-10T06:39:27;10.38;;;8.50;;
66163;SDS011;52962;51.088;3.096;2023-05-10T06:41:55;9.38;;;8.48;;
66163;SDS011;52962;51.088;3.096;2023-05-10T06:44:25;8.98;;;8.02;;
66163;SDS011;52962;51.088;3.096;2023-05-10T06:46:53;9.95;;;8.98;;
66163;SDS011;52962;51.088;3.096;2023-05-10T06:49:22;7.47;;;6.75;;
66163;SDS011;52962;51.088;3.096;2023-05-10T06:51:50;9.68;;;8.15;;
66163;SDS011;52962;51.088;3.096;2023-05-10T06:56:47;9.88;;;6.80;;
66163;SDS011;52962;51.088;3.096;2023-05-10T06:59:14;9.40;;;6.82;;
66163;SDS011;52962;51.088;3.096;2023-05-10T07:01:42;7.60;;;6.90;;
66163;SDS011;52962;51.088;3.096;2023-05-10T07:04:11;7.80;;;7.00;;
66163;SDS011;52962;51.088;3.096;2023-05-10T07:06:39;7.93;;;7.18;;
66163;SDS011;52962;51.088;3.096;2023-05-10T07:09:07;8.65;;;7.68;;
66163;SDS011;52962;51.088;3.096;2023-05-10T07:11:35;8.45;;;6.80;;
66163;SDS011;52962;51.088;3.096;2023-05-10T07:14:05;7.75;;;7.05;;
66163;SDS011;52962;51.088;3.096;2023-05-10T07:16:33;9.63;;;8.50;;
66163;SDS011;52962;51.088;3.096;2023-05-10T07:19:01;8.30;;;7.07;;
66163;SDS011;52962;51.088;3.096;2023-05-10T07:21:29;9.30;;;7.10;;
66163;SDS011;52962;51.088;3.096;2023-05-10T07:23:57;8.13;;;6.55;;
66163;SDS011;52962;51.088;3.096;2023-05-10T07:26:26;7.82;;;6.88;;
66163;SDS011;52962;51.088;3.096;2023-05-10T07:28:54;7.82;;;7.07;;
66163;SDS011;52962;51.088;3.096;2023-05-10T07:31:23;6.97;;;6.18;;
66163;SDS011;52962;51.088;3.096;2023-05-10T07:33:51;8.45;;;7.53;;
66163;SDS011;52962;51.088;3.096;2023-05-10T07:36:19;9.45;;;7.28;;
66163;SDS011;52962;51.088;3.096;2023-05-10T07:38:47;8.40;;;7.55;;
66163;SDS011;52962;51.088;3.096;2023-05-10T07:41:15;7.93;;;6.93;;
66163;SDS011;52962;51.088;3.096;2023-05-10T07:43:43;7.80;;;7.10;;
66163;SDS011;52962;51.088;3.096;2023-05-10T07:46:11;8.65;;;7.65;;
66163;SDS011;52962;51.088;3.096;2023-05-10T07:48:40;7.68;;;6.97;;
66163;SDS011;52962;51.088;3.096;2023-05-10T07:51:08;9.48;;;8.02;;
66163;SDS011;52962;51.088;3.096;2023-05-10T07:53:37;8.93;;;8.02;;
66163;SDS011;52962;51.088;3.096;2023-05-10T07:56:19;9.25;;;8.35;;
66163;SDS011;52962;51.088;3.096;2023-05-10T07:58:47;7.28;;;6.65;;
66163;SDS011;52962;51.088;3.096;2023-05-10T08:01:15;9.73;;;8.80;;
66163;SDS011;52962;51.088;3.096;2023-05-10T08:03:45;9.73;;;8.25;;
66163;SDS011;52962;51.088;3.096;2023-05-10T08:06:13;10.23;;;8.05;;
66163;SDS011;52962;51.088;3.096;2023-05-10T08:08:41;7.95;;;7.15;;
66163;SDS011;52962;51.088;3.096;2023-05-10T08:11:09;10.40;;;7.28;;
66163;SDS011;52962;51.088;3.096;2023-05-10T08:13:37;10.13;;;7.50;;
66163;SDS011;52962;51.088;3.096;2023-05-10T08:16:05;8.55;;;7.75;;
66163;SDS011;52962;51.088;3.096;2023-05-10T08:18:33;7.20;;;6.50;;
66163;SDS011;52962;51.088;3.096;2023-05-10T08:21:03;7.75;;;6.18;;
66163;SDS011;52962;51.088;3.096;2023-05-10T08:23:31;12.02;;;7.25;;
66163;SDS011;52962;51.088;3.096;2023-05-10T08:25:59;6.95;;;6.32;;
66163;SDS011;52962;51.088;3.096;2023-05-10T08:28:27;7.78;;;6.75;;
66163;SDS011;52962;51.088;3.096;2023-05-10T08:30:55;7.53;;;6.78;;
66163;SDS011;52962;51.088;3.096;2023-05-10T08:33:23;7.78;;;6.97;;
66163;SDS011;52962;51.088;3.096;2023-05-10T08:35:51;8.00;;;7.28;;
66163;SDS011;52962;51.088;3.096;2023-05-10T08:38:20;7.43;;;6.45;;
66163;SDS011;52962;51.088;3.096;2023-05-10T08:40:49;7.75;;;6.82;;
66163;SDS011;52962;51.088;3.096;2023-05-10T08:43:17;8.38;;;7.57;;
66163;SDS011;52962;51.088;3.096;2023-05-10T08:45:45;9.90;;;5.57;;
66163;SDS011;52962;51.088;3.096;2023-05-10T08:48:13;9.18;;;7.03;;
66163;SDS011;52962;51.088;3.096;2023-05-10T08:53:10;6.75;;;5.65;;
66163;SDS011;52962;51.088;3.096;2023-05-10T08:55:39;6.38;;;5.78;;
66163;SDS011;52962;51.088;3.096;2023-05-10T08:58:09;9.93;;;5.72;;
66163;SDS011;52962;51.088;3.096;2023-05-10T09:00:37;7.13;;;5.90;;
66163;SDS011;52962;51.088;3.096;2023-05-10T09:03:05;7.57;;;5.68;;
66163;SDS011;52962;51.088;3.096;2023-05-10T09:05:33;6.10;;;5.30;;
66163;SDS011;52962;51.088;3.096;2023-05-10T09:08:03;10.45;;;6.68;;
66163;SDS011;52962;51.088;3.096;2023-05-10T09:10:31;8.50;;;5.90;;
66163;SDS011;52962;51.088;3.096;2023-05-10T09:13:01;6.63;;;5.95;;
66163;SDS011;52962;51.088;3.096;2023-05-10T09:15:29;9.55;;;6.22;;
66163;SDS011;52962;51.088;3.096;2023-05-10T09:17:57;7.40;;;6.22;;
66163;SDS011;52962;51.088;3.096;2023-05-10T09:20:28;11.60;;;6.63;;
66163;SDS011;52962;51.088;3.096;2023-05-10T09:22:57;8.18;;;5.88;;
66163;SDS011;52962;51.088;3.096;2023-05-10T09:25:25;8.80;;;6.47;;
66163;SDS011;52962;51.088;3.096;2023-05-10T09:27:53;11.10;;;5.85;;
66163;SDS011;52962;51.088;3.096;2023-05-10T09:30:25;9.77;;;5.68;;
66163;SDS011;52962;51.088;3.096;2023-05-10T09:32:54;7.32;;;5.03;;
66163;SDS011;52962;51.088;3.096;2023-05-10T09:35:23;9.65;;;5.68;;
66163;SDS011;52962;51.088;3.096;2023-05-10T09:37:55;8.48;;;5.18;;
66163;SDS011;52962;51.088;3.096;2023-05-10T09:40:24;7.93;;;5.68;;
66163;SDS011;52962;51.088;3.096;2023-05-10T09:42:52;7.25;;;5.78;;
66163;SDS011;52962;51.088;3.096;2023-05-10T09:45:21;6.10;;;4.97;;
66163;SDS011;52962;51.088;3.096;2023-05-10T09:47:50;7.53;;;5.70;;
66163;SDS011;52962;51.088;3.096;2023-05-10T09:50:19;6.32;;;5.03;;
66163;SDS011;52962;51.088;3.096;2023-05-10T09:52:47;8.07;;;5.38;;
66163;SDS011;52962;51.088;3.096;2023-05-10T09:55:16;9.02;;;5.93;;
66163;SDS011;52962;51.088;3.096;2023-05-10T09:57:44;6.88;;;5.15;;
66163;SDS011;52962;51.088;3.096;2023-05-10T10:00:16;8.00;;;5.93;;
66163;SDS011;52962;51.088;3.096;2023-05-10T10:02:45;8.73;;;5.13;;
66163;SDS011;52962;51.088;3.096;2023-05-10T10:05:14;8.23;;;5.72;;
66163;SDS011;52962;51.088;3.096;2023-05-10T10:07:42;6.72;;;4.55;;
66163;SDS011;52962;51.088;3.096;2023-05-10T10:10:10;7.80;;;4.82;;
66163;SDS011;52962;51.088;3.096;2023-05-10T10:17:34;9.38;;;5.38;;
66163;SDS011;52962;51.088;3.096;2023-05-10T10:20:03;10.52;;;5.00;;
66163;SDS011;52962;51.088;3.096;2023-05-10T10:25:00;6.85;;;4.50;;
66163;SDS011;52962;51.088;3.096;2023-05-10T10:27:29;6.03;;;4.35;;
66163;SDS011;52962;51.088;3.096;2023-05-10T10:30:03;4.15;;;3.72;;
66163;SDS011;52962;51.088;3.096;2023-05-10T10:32:34;6.45;;;4.53;;
66163;SDS011;52962;51.088;3.096;2023-05-10T10:35:03;4.38;;;3.75;;
66163;SDS011;52962;51.088;3.096;2023-05-10T10:37:42;5.13;;;4.13;;
66163;SDS011;52962;51.088;3.096;2023-05-10T10:40:23;6.18;;;4.05;;
66163;SDS011;52962;51.088;3.096;2023-05-10T10:42:52;7.80;;;3.80;;
66163;SDS011;52962;51.088;3.096;2023-05-10T10:45:20;8.55;;;4.22;;
66163;SDS011;52962;51.088;3.096;2023-05-10T10:47:49;7.32;;;3.45;;
66163;SDS011;52962;51.088;3.096;2023-05-10T10:50:21;8.25;;;3.65;;
66163;SDS011;52962;51.088;3.096;2023-05-10T10:52:48;6.15;;;3.83;;
66163;SDS011;52962;51.088;3.096;2023-05-10T10:55:19;6.28;;;3.95;;
66163;SDS011;52962;51.088;3.096;2023-05-10T10:57:50;4.10;;;3.78;;
66163;SDS011;52962;51.088;3.096;2023-05-10T11:00:21;6.85;;;3.75;;
66163;SDS011;52962;51.088;3.096;2023-05-10T11:02:49;4.45;;;3.33;;
66163;SDS011;52962;51.088;3.096;2023-05-10T11:05:25;6.20;;;3.30;;
66163;SDS011;52962;51.088;3.096;2023-05-10T11:07:53;7.15;;;3.53;;
66163;SDS011;52962;51.088;3.096;2023-05-10T11:10:22;4.13;;;3.25;;
66163;SDS011;52962;51.088;3.096;2023-05-10T11:12:55;7.07;;;3.60;;
66163;SDS011;52962;51.088;3.096;2023-05-10T11:15:30;3.72;;;3.17;;
66163;SDS011;52962;51.088;3.096;2023-05-10T11:17:58;5.18;;;4.10;;
66163;SDS011;52962;51.088;3.096;2023-05-10T11:20:27;4.53;;;3.67;;
66163;SDS011;52962;51.088;3.096;2023-05-10T11:23:10;4.35;;;3.65;;
66163;SDS011;52962;51.088;3.096;2023-05-10T11:25:40;7.45;;;4.28;;
66163;SDS011;52962;51.088;3.096;2023-05-10T11:28:10;12.30;;;4.15;;
66163;SDS011;52962;51.088;3.096;2023-05-10T11:30:38;6.57;;;4.05;;
66163;SDS011;52962;51.088;3.096;2023-05-10T11:33:07;5.68;;;3.78;;
66163;SDS011;52962;51.088;3.096;2023-05-10T11:35:38;7.32;;;3.53;;
66163;SDS011;52962;51.088;3.096;2023-05-10T11:38:09;5.45;;;3.38;;
66163;SDS011;52962;51.088;3.096;2023-05-10T11:40:37;4.43;;;3.47;;
66163;SDS011;52962;51.088;3.096;2023-05-10T11:43:05;9.98;;;4.80;;
66163;SDS011;52962;51.088;3.096;2023-05-10T11:48:03;7.38;;;3.70;;
66163;SDS011;52962;51.088;3.096;2023-05-10T11:50:31;6.60;;;3.80;;
66163;SDS011;52962;51.088;3.096;2023-05-10T11:53:00;5.15;;;3.85;;
66163;SDS011;52962;51.088;3.096;2023-05-10T11:55:28;6.70;;;3.97;;
66163;SDS011;52962;51.088;3.096;2023-05-10T11:57:59;6.88;;;3.65;;
66163;SDS011;52962;51.088;3.096;2023-05-10T12:00:28;5.10;;;2.97;;
66163;SDS011;52962;51.088;3.096;2023-05-10T12:02:56;4.97;;;3.58;;
66163;SDS011;52962;51.088;3.096;2023-05-10T12:05:26;9.02;;;3.42;;
66163;SDS011;52962;51.088;3.096;2023-05-10T12:10:39;5.60;;;3.90;;
66163;SDS011;52962;51.088;3.096;2023-05-10T12:15:35;9.02;;;3.05;;
66163;SDS011;52962;51.088;3.096;2023-05-10T12:18:03;3.55;;;2.60;;
66163;SDS011;52962;51.088;3.096;2023-05-10T12:20:33;2.90;;;1.67;;
66163;SDS011;52962;51.088;3.096;2023-05-10T12:23:00;6.68;;;3.13;;
66163;SDS011;52962;51.088;3.096;2023-05-10T12:25:30;3.63;;;2.88;;
66163;SDS011;52962;51.088;3.096;2023-05-10T12:27:58;5.25;;;2.25;;
66163;SDS011;52962;51.088;3.096;2023-05-10T12:30:27;6.38;;;2.45;;
66163;SDS011;52962;51.088;3.096;2023-05-10T12:32:59;3.03;;;1.90;;
66163;SDS011;52962;51.088;3.096;2023-05-10T12:35:29;6.65;;;2.55;;
66163;SDS011;52962;51.088;3.096;2023-05-10T12:37:59;5.32;;;2.58;;
66163;SDS011;52962;51.088;3.096;2023-05-10T12:40:26;6.72;;;3.10;;
66163;SDS011;52962;51.088;3.096;2023-05-10T12:42:55;4.10;;;2.30;;
66163;SDS011;52962;51.088;3.096;2023-05-10T12:47:51;4.50;;;2.13;;
66163;SDS011;52962;51.088;3.096;2023-05-10T12:50:19;3.05;;;2.05;;
66163;SDS011;52962;51.088;3.096;2023-05-10T12:52:46;3.72;;;2.42;;
66163;SDS011;52962;51.088;3.096;2023-05-10T12:55:16;6.05;;;2.30;;
66163;SDS011;52962;51.088;3.096;2023-05-10T12:57:43;3.50;;;1.98;;
66163;SDS011;52962;51.088;3.096;2023-05-10T13:00:12;6.50;;;2.33;;
66163;SDS011;52962;51.088;3.096;2023-05-10T13:02:40;4.50;;;2.60;;
66163;SDS011;52962;51.088;3.096;2023-05-10T13:05:08;5.40;;;1.90;;
66163;SDS011;52962;51.088;3.096;2023-05-10T13:07:36;2.83;;;2.00;;
66163;SDS011;52962;51.088;3.096;2023-05-10T13:10:05;5.05;;;2.63;;
66163;SDS011;52962;51.088;3.096;2023-05-10T13:12:38;3.17;;;2.25;;
66163;SDS011;52962;51.088;3.096;2023-05-10T13:15:09;2.90;;;1.67;;
66163;SDS011;52962;51.088;3.096;2023-05-10T13:17:37;4.07;;;2.78;;
66163;SDS011;52962;51.088;3.096;2023-05-10T13:20:05;7.90;;;3.28;;
66163;SDS011;52962;51.088;3.096;2023-05-10T13:22:33;6.88;;;2.67;;
66163;SDS011;52962;51.088;3.096;2023-05-10T13:25:06;4.60;;;2.78;;
66163;SDS011;52962;51.088;3.096;2023-05-10T13:30:03;3.92;;;2.10;;
66163;SDS011;52962;51.088;3.096;2023-05-10T13:32:31;2.83;;;2.00;;
66163;SDS011;52962;51.088;3.096;2023-05-10T13:35:00;4.07;;;2.45;;
66163;SDS011;52962;51.088;3.096;2023-05-10T13:37:29;3.33;;;2.28;;
66163;SDS011;52962;51.088;3.096;2023-05-10T13:39:57;5.97;;;2.22;;
66163;SDS011;52962;51.088;3.096;2023-05-10T13:42:25;6.13;;;2.15;;
66163;SDS011;52962;51.088;3.096;2023-05-10T13:44:53;3.65;;;1.88;;
66163;SDS011;52962;51.088;3.096;2023-05-10T13:47:22;5.88;;;2.33;;
66163;SDS011;52962;51.088;3.096;2023-05-10T13:49:50;4.40;;;1.98;;
66163;SDS011;52962;51.088;3.096;2023-05-10T13:52:18;4.75;;;1.80;;
66163;SDS011;52962;51.088;3.096;2023-05-10T13:54:46;4.57;;;2.80;;
66163;SDS011;52962;51.088;3.096;2023-05-10T13:57:14;9.35;;;2.65;;
66163;SDS011;52962;51.088;3.096;2023-05-10T13:59:43;4.25;;;1.95;;
66163;SDS011;52962;51.088;3.096;2023-05-10T14:02:11;2.95;;;1.35;;
66163;SDS011;52962;51.088;3.096;2023-05-10T14:04:41;4.72;;;1.77;;
66163;SDS011;52962;51.088;3.096;2023-05-10T14:07:09;4.47;;;1.58;;
66163;SDS011;52962;51.088;3.096;2023-05-10T14:09:36;5.28;;;2.25;;
66163;SDS011;52962;51.088;3.096;2023-05-10T14:12:04;3.28;;;1.58;;
66163;SDS011;52962;51.088;3.096;2023-05-10T14:14:32;2.33;;;2.13;;
66163;SDS011;52962;51.088;3.096;2023-05-10T14:17:00;7.75;;;1.95;;
66163;SDS011;52962;51.088;3.096;2023-05-10T14:19:28;3.00;;;1.75;;
66163;SDS011;52962;51.088;3.096;2023-05-10T14:22:00;2.90;;;1.80;;
66163;SDS011;52962;51.088;3.096;2023-05-10T14:24:28;4.32;;;1.63;;
66163;SDS011;52962;51.088;3.096;2023-05-10T14:26:56;3.60;;;1.50;;
66163;SDS011;52962;51.088;3.096;2023-05-10T14:29:23;5.95;;;2.03;;
66163;SDS011;52962;51.088;3.096;2023-05-10T14:31:51;4.15;;;1.95;;
66163;SDS011;52962;51.088;3.096;2023-05-10T14:34:19;5.10;;;2.33;;
66163;SDS011;52962;51.088;3.096;2023-05-10T14:36:47;5.05;;;1.60;;
66163;SDS011;52962;51.088;3.096;2023-05-10T14:39:17;3.65;;;1.73;;
66163;SDS011;52962;51.088;3.096;2023-05-10T14:41:45;3.70;;;2.58;;
66163;SDS011;52962;51.088;3.096;2023-05-10T14:44:13;2.97;;;1.85;;
66163;SDS011;52962;51.088;3.096;2023-05-10T14:46:42;4.88;;;1.90;;
66163;SDS011;52962;51.088;3.096;2023-05-10T14:49:10;3.95;;;2.25;;
66163;SDS011;52962;51.088;3.096;2023-05-10T14:51:37;3.55;;;1.90;;
66163;SDS011;52962;51.088;3.096;2023-05-10T14:54:05;2.67;;;1.55;;
66163;SDS011;52962;51.088;3.096;2023-05-10T14:56:34;2.33;;;1.73;;
66163;SDS011;52962;51.088;3.096;2023-05-10T14:59:03;2.55;;;1.55;;
66163;SDS011;52962;51.088;3.096;2023-05-10T15:01:31;4.07;;;1.70;;
66163;SDS011;52962;51.088;3.096;2023-05-10T15:04:01;3.50;;;1.95;;
66163;SDS011;52962;51.088;3.096;2023-05-10T15:06:30;4.85;;;2.28;;
66163;SDS011;52962;51.088;3.096;2023-05-10T15:08:58;5.05;;;1.92;;
66163;SDS011;52962;51.088;3.096;2023-05-10T15:13:55;3.78;;;2.10;;
66163;SDS011;52962;51.088;3.096;2023-05-10T15:16:23;3.65;;;1.65;;
66163;SDS011;52962;51.088;3.096;2023-05-10T15:18:51;4.18;;;2.00;;
66163;SDS011;52962;51.088;3.096;2023-05-10T15:21:19;3.60;;;1.70;;
66163;SDS011;52962;51.088;3.096;2023-05-10T15:23:47;4.00;;;1.60;;
66163;SDS011;52962;51.088;3.096;2023-05-10T15:26:15;3.10;;;1.80;;
66163;SDS011;52962;51.088;3.096;2023-05-10T15:31:12;5.43;;;1.90;;
66163;SDS011;52962;51.088;3.096;2023-05-10T15:33:40;5.03;;;2.33;;
66163;SDS011;52962;51.088;3.096;2023-05-10T15:36:08;5.00;;;1.85;;
66163;SDS011;52962;51.088;3.096;2023-05-10T15:41:04;2.13;;;1.70;;
66163;SDS011;52962;51.088;3.096;2023-05-10T15:43:32;4.15;;;1.88;;